sensor_id;sensor_type;location;lat;lon;timestamp;pressure;altitude;pressure_sealevel;temperature;humidity
35649;BME280;21768;48.562;13.414;2024-01-10T00:00:30;98142.53;;;-2.15;54.72
35649;BME280;21768;48.562;13.414;2024-01-10T00:02:56;98139.66;;;-2.18;54.95
35649;BME280;21768;48.562;13.414;2024-01-10T00:05:21;98136.13;;;-2.20;54.99
35649;BME280;21768;48.562;13.414;2024-01-10T00:07:46;98133.28;;;-2.23;55.01
35649;BME280;21768;48.562;13.414;2024-01-10T00:10:12;98133.28;;;-2.23;54.93
35649;BME280;21768;48.562;13.414;2024-01-10T00:12:37;98137.84;;;-2.26;55.39
35649;BME280;21768;48.562;13.414;2024-01-10T00:15:04;98145.94;;;-2.27;55.30
35649;BME280;21768;48.562;13.414;2024-01-10T00:17:30;98136.97;;;-2.27;55.41
35649;BME280;21768;48.562;13.414;2024-01-10T00:19:55;98135.56;;;-2.25;55.28
35649;BME280;21768;48.562;13.414;2024-01-10T00:22:21;98141.72;;;-2.28;55.50
35649;BME280;21768;48.562;13.414;2024-01-10T00:24:46;98144.19;;;-2.28;55.56
35649;BME280;21768;48.562;13.414;2024-01-10T00:27:11;98144.19;;;-2.28;55.49
35649;BME280;21768;48.562;13.414;2024-01-10T00:29:37;98137.97;;;-2.32;55.66
35649;BME280;21768;48.562;13.414;2024-01-10T00:32:02;98143.41;;;-2.34;55.71
35649;BME280;21768;48.562;13.414;2024-01-10T00:34:27;98143.22;;;-2.36;55.72
35649;BME280;21768;48.562;13.414;2024-01-10T00:36:53;98152.28;;;-2.29;55.57
35649;BME280;21768;48.562;13.414;2024-01-10T00:39:18;98154.75;;;-2.29;55.39
35649;BME280;21768;48.562;13.414;2024-01-10T00:41:43;98148.34;;;-2.34;55.29
35649;BME280;21768;48.562;13.414;2024-01-10T00:44:09;98155.06;;;-2.33;55.24
35649;BME280;21768;48.562;13.414;2024-01-10T00:46:34;98146.19;;;-2.38;55.52
35649;BME280;21768;48.562;13.414;2024-01-10T00:48:59;98148.75;;;-2.44;55.53
35649;BME280;21768;48.562;13.414;2024-01-10T00:51:25;98153.72;;;-2.44;55.57
35649;BME280;21768;48.562;13.414;2024-01-10T00:53:50;98150.34;;;-2.45;55.51
35649;BME280;21768;48.562;13.414;2024-01-10T00:56:15;98152.63;;;-2.46;55.42
35649;BME280;21768;48.562;13.414;2024-01-10T00:58:41;98150.00;;;-2.48;55.40
35649;BME280;21768;48.562;13.414;2024-01-10T01:01:07;98151.38;;;-2.50;55.42
35649;BME280;21768;48.562;13.414;2024-01-10T01:03:32;98147.63;;;-2.53;55.29
35649;BME280;21768;48.562;13.414;2024-01-10T01:05:57;98149.22;;;-2.54;55.61
35649;BME280;21768;48.562;13.414;2024-01-10T01:08:23;98153.25;;;-2.54;55.71
35649;BME280;21768;48.562;13.414;2024-01-10T01:10:48;98148.81;;;-2.57;55.92
35649;BME280;21768;48.562;13.414;2024-01-10T01:13:13;98158.31;;;-2.60;55.98
35649;BME280;21768;48.562;13.414;2024-01-10T01:15:39;98164.13;;;-2.59;55.88
35649;BME280;21768;48.562;13.414;2024-01-10T01:18:04;98162.38;;;-2.60;55.92
35649;BME280;21768;48.562;13.414;2024-01-10T01:20:30;98162.56;;;-2.59;56.25
35649;BME280;21768;48.562;13.414;2024-01-10T01:22:55;98163.66;;;-2.57;56.13
35649;BME280;21768;48.562;13.414;2024-01-10T01:25:20;98154.25;;;-2.59;56.26
35649;BME280;21768;48.562;13.414;2024-01-10T01:27:46;98160.09;;;-2.59;56.14
35649;BME280;21768;48.562;13.414;2024-01-10T01:30:11;98162.38;;;-2.60;56.15
35649;BME280;21768;48.562;13.414;2024-01-10T01:32:37;98161.47;;;-2.61;56.15
35649;BME280;21768;48.562;13.414;2024-01-10T01:35:03;98164.63;;;-2.62;56.07
35649;BME280;21768;48.562;13.414;2024-01-10T01:37:28;98162.88;;;-2.63;56.20
35649;BME280;21768;48.562;13.414;2024-01-10T01:39:54;98156.84;;;-2.65;56.03
35649;BME280;21768;48.562;13.414;2024-01-10T01:42:19;98153.97;;;-2.68;56.18
35649;BME280;21768;48.562;13.414;2024-01-10T01:44:45;98148.84;;;-2.69;56.08
35649;BME280;21768;48.562;13.414;2024-01-10T01:47:10;98157.84;;;-2.70;56.21
35649;BME280;21768;48.562;13.414;2024-01-10T01:49:36;98149.69;;;-2.76;56.22
35649;BME280;21768;48.562;13.414;2024-01-10T01:52:01;98159.56;;;-2.76;56.45
35649;BME280;21768;48.562;13.414;2024-01-10T01:54:27;98157.19;;;-2.82;56.58
35649;BME280;21768;48.562;13.414;2024-01-10T01:56:53;98158.56;;;-2.84;56.53
35649;BME280;21768;48.562;13.414;2024-01-10T01:59:19;98156.28;;;-2.82;56.24
35649;BME280;21768;48.562;13.414;2024-01-10T02:01:45;98157.00;;;-2.83;56.33
35649;BME280;21768;48.562;13.414;2024-01-10T02:04:11;98154.41;;;-2.90;56.66
35649;BME280;21768;48.562;13.414;2024-01-10T02:06:36;98151.56;;;-2.93;56.58
35649;BME280;21768;48.562;13.414;2024-01-10T02:09:02;98140.59;;;-2.95;56.51
35649;BME280;21768;48.562;13.414;2024-01-10T02:11:28;98140.94;;;-2.99;56.50
35649;BME280;21768;48.562;13.414;2024-01-10T02:13:54;98140.34;;;-3.04;56.59
35649;BME280;21768;48.562;13.414;2024-01-10T02:16:21;98139.06;;;-3.08;56.49
35649;BME280;21768;48.562;13.414;2024-01-10T02:18:48;98138.38;;;-3.06;56.76
35649;BME280;21768;48.562;13.414;2024-01-10T02:21:14;98132.34;;;-3.09;56.73
35649;BME280;21768;48.562;13.414;2024-01-10T02:23:39;98140.84;;;-3.06;56.77
35649;BME280;21768;48.562;13.414;2024-01-10T02:26:04;98137.47;;;-3.07;56.91
35649;BME280;21768;48.562;13.414;2024-01-10T02:28:31;98144.41;;;-3.04;56.83
35649;BME280;21768;48.562;13.414;2024-01-10T02:30:57;98133.13;;;-3.02;56.89
35649;BME280;21768;48.562;13.414;2024-01-10T02:33:22;98138.97;;;-3.02;56.84
35649;BME280;21768;48.562;13.414;2024-01-10T02:35:48;98136.69;;;-3.00;57.03
35649;BME280;21768;48.562;13.414;2024-01-10T02:38:13;98145.53;;;-2.95;56.96
35649;BME280;21768;48.562;13.414;2024-01-10T02:40:38;98128.97;;;-2.96;56.92
35649;BME280;21768;48.562;13.414;2024-01-10T02:43:03;98133.53;;;-2.99;56.91
35649;BME280;21768;48.562;13.414;2024-01-10T02:45:29;98124.16;;;-3.02;56.80
35649;BME280;21768;48.562;13.414;2024-01-10T02:47:54;98133.84;;;-3.03;57.02
35649;BME280;21768;48.562;13.414;2024-01-10T02:50:20;98132.44;;;-3.01;57.40
35649;BME280;21768;48.562;13.414;2024-01-10T02:52:45;98130.47;;;-3.04;57.25
35649;BME280;21768;48.562;13.414;2024-01-10T02:55:10;98123.38;;;-3.08;57.56
35649;BME280;21768;48.562;13.414;2024-01-10T02:57:36;98116.47;;;-3.11;57.50
35649;BME280;21768;48.562;13.414;2024-01-10T03:00:01;98119.13;;;-3.09;57.45
35649;BME280;21768;48.562;13.414;2024-01-10T03:02:29;98127.72;;;-3.13;57.47
35649;BME280;21768;48.562;13.414;2024-01-10T03:04:54;98127.72;;;-3.13;57.67
35649;BME280;21768;48.562;13.414;2024-01-10T03:07:20;98130.88;;;-3.14;57.62
35649;BME280;21768;48.562;13.414;2024-01-10T03:09:45;98124.66;;;-3.17;57.63
35649;BME280;21768;48.562;13.414;2024-01-10T03:12:11;98120.34;;;-3.25;57.70
35649;BME280;21768;48.562;13.414;2024-01-10T03:14:37;98125.38;;;-3.31;57.96
35649;BME280;21768;48.562;13.414;2024-01-10T03:17:02;98121.03;;;-3.26;57.93
35649;BME280;21768;48.562;13.414;2024-01-10T03:19:28;98120.00;;;-3.21;57.84
35649;BME280;21768;48.562;13.414;2024-01-10T03:21:53;98120.34;;;-3.25;57.59
35649;BME280;21768;48.562;13.414;2024-01-10T03:24:19;98118.25;;;-3.35;57.77
35649;BME280;21768;48.562;13.414;2024-01-10T03:26:44;98109.59;;;-3.38;57.84
35649;BME280;21768;48.562;13.414;2024-01-10T03:29:10;98113.63;;;-3.39;57.68
35649;BME280;21768;48.562;13.414;2024-01-10T03:31:35;98115.69;;;-3.42;57.92
35649;BME280;21768;48.562;13.414;2024-01-10T03:34:00;98116.38;;;-3.43;57.76
35649;BME280;21768;48.562;13.414;2024-01-10T03:36:26;98117.66;;;-3.39;57.84
35649;BME280;21768;48.562;13.414;2024-01-10T03:38:51;98115.91;;;-3.40;57.84
35649;BME280;21768;48.562;13.414;2024-01-10T03:41:18;98114.72;;;-3.37;57.93
35649;BME280;21768;48.562;13.414;2024-01-10T03:43:44;98116.19;;;-3.32;57.88
35649;BME280;21768;48.562;13.414;2024-01-10T03:46:10;98105.63;;;-3.31;57.68
35649;BME280;21768;48.562;13.414;2024-01-10T03:48:36;98113.72;;;-3.32;57.87
35649;BME280;21768;48.562;13.414;2024-01-10T03:51:02;98124.88;;;-3.28;57.78
35649;BME280;21768;48.562;13.414;2024-01-10T03:53:28;98119.44;;;-3.26;57.86
35649;BME280;21768;48.562;13.414;2024-01-10T03:55:53;98118.38;;;-3.28;58.03
35649;BME280;21768;48.562;13.414;2024-01-10T03:58:19;98118.88;;;-3.30;57.83
35649;BME280;21768;48.562;13.414;2024-01-10T04:00:44;98122.03;;;-3.31;57.89
35649;BME280;21768;48.562;13.414;2024-01-10T04:03:09;98121.13;;;-3.32;57.96
35649;BME280;21768;48.562;13.414;2024-01-10T04:05:35;98122.31;;;-3.35;57.94
35649;BME280;21768;48.562;13.414;2024-01-10T04:08:00;98123.69;;;-3.37;57.96
35649;BME280;21768;48.562;13.414;2024-01-10T04:10:25;98118.25;;;-3.35;58.34
35649;BME280;21768;48.562;13.414;2024-01-10T04:12:51;98124.28;;;-3.33;58.22
35649;BME280;21768;48.562;13.414;2024-01-10T04:15:16;98124.78;;;-3.35;58.33
35649;BME280;21768;48.562;13.414;2024-01-10T04:17:43;98127.25;;;-3.35;58.33
35649;BME280;21768;48.562;13.414;2024-01-10T04:20:09;98122.09;;;-3.37;58.42
35649;BME280;21768;48.562;13.414;2024-01-10T04:22:34;98134.25;;;-3.38;58.55
35649;BME280;21768;48.562;13.414;2024-01-10T04:25:00;98136.03;;;-3.37;58.28
35649;BME280;21768;48.562;13.414;2024-01-10T04:27:27;98139.66;;;-3.41;58.53
35649;BME280;21768;48.562;13.414;2024-01-10T04:29:53;98140.66;;;-3.46;58.47
35649;BME280;21768;48.562;13.414;2024-01-10T04:32:18;98141.84;;;-3.50;58.59
35649;BME280;21768;48.562;13.414;2024-01-10T04:34:43;98144.31;;;-3.50;58.43
35649;BME280;21768;48.562;13.414;2024-01-10T04:37:09;98147.56;;;-3.56;58.54
35649;BME280;21768;48.562;13.414;2024-01-10T04:39:35;98147.66;;;-3.62;58.64
35649;BME280;21768;48.562;13.414;2024-01-10T04:42:01;98148.13;;;-3.64;58.67
35649;BME280;21768;48.562;13.414;2024-01-10T04:44:26;98155.72;;;-3.63;58.74
35649;BME280;21768;48.562;13.414;2024-01-10T04:46:51;98160.56;;;-3.57;58.52
35649;BME280;21768;48.562;13.414;2024-01-10T04:49:17;98170.03;;;-3.60;58.76
35649;BME280;21768;48.562;13.414;2024-01-10T04:51:42;98160.47;;;-3.64;58.97
35649;BME280;21768;48.562;13.414;2024-01-10T04:54:08;98167.84;;;-3.64;59.04
35649;BME280;21768;48.562;13.414;2024-01-10T04:56:34;98163.00;;;-3.70;59.07
35649;BME280;21768;48.562;13.414;2024-01-10T04:59:01;98174.66;;;-3.69;59.09
35649;BME280;21768;48.562;13.414;2024-01-10T05:01:26;98170.53;;;-3.63;58.99
35649;BME280;21768;48.562;13.414;2024-01-10T05:03:52;98172.38;;;-3.67;59.04
35649;BME280;21768;48.562;13.414;2024-01-10T05:06:17;98178.22;;;-3.67;58.97
35649;BME280;21768;48.562;13.414;2024-01-10T05:08:42;98175.75;;;-3.67;59.02
35649;BME280;21768;48.562;13.414;2024-01-10T05:11:08;98184.16;;;-3.59;59.12
35649;BME280;21768;48.562;13.414;2024-01-10T05:13:33;98184.53;;;-3.56;59.10
35649;BME280;21768;48.562;13.414;2024-01-10T05:15:59;98186.72;;;-3.52;59.08
35649;BME280;21768;48.562;13.414;2024-01-10T05:18:24;98198.38;;;-3.51;59.08
35649;BME280;21768;48.562;13.414;2024-01-10T05:20:49;98188.72;;;-3.50;58.90
35649;BME280;21768;48.562;13.414;2024-01-10T05:23:15;98194.53;;;-3.49;59.13
35649;BME280;21768;48.562;13.414;2024-01-10T05:25:40;98193.72;;;-3.55;59.09
35649;BME280;21768;48.562;13.414;2024-01-10T05:28:06;98198.25;;;-3.58;59.32
35649;BME280;21768;48.562;13.414;2024-01-10T05:30:31;98200.91;;;-3.57;59.28
35649;BME280;21768;48.562;13.414;2024-01-10T05:32:57;98201.81;;;-3.56;59.23
35649;BME280;21768;48.562;13.414;2024-01-10T05:35:24;98205.38;;;-3.54;58.95
35649;BME280;21768;48.562;13.414;2024-01-10T05:37:51;98200.44;;;-3.54;59.24
35649;BME280;21768;48.562;13.414;2024-01-10T05:40:17;98205.75;;;-3.51;59.11
35649;BME280;21768;48.562;13.414;2024-01-10T05:42:44;98205.56;;;-3.53;59.28
35649;BME280;21768;48.562;13.414;2024-01-10T05:45:09;98206.44;;;-3.52;59.25
35649;BME280;21768;48.562;13.414;2024-01-10T05:47:34;98204.88;;;-3.52;59.34
35649;BME280;21768;48.562;13.414;2024-01-10T05:50:00;98204.47;;;-3.55;59.33
35649;BME280;21768;48.562;13.414;2024-01-10T05:52:25;98214.53;;;-3.53;59.50
35649;BME280;21768;48.562;13.414;2024-01-10T05:54:51;98225.09;;;-3.54;59.41
35649;BME280;21768;48.562;13.414;2024-01-10T05:57:18;98214.53;;;-3.53;59.42
35649;BME280;21768;48.562;13.414;2024-01-10T05:59:43;98220.97;;;-3.48;59.59
35649;BME280;21768;48.562;13.414;2024-01-10T06:02:09;98209.13;;;-3.51;59.36
35649;BME280;21768;48.562;13.414;2024-01-10T06:04:34;98216.13;;;-3.54;59.66
35649;BME280;21768;48.562;13.414;2024-01-10T06:07:00;98216.50;;;-3.51;59.48
35649;BME280;21768;48.562;13.414;2024-01-10T06:09:25;98214.25;;;-3.49;59.53
35649;BME280;21768;48.562;13.414;2024-01-10T06:11:51;98214.53;;;-3.53;59.57
35649;BME280;21768;48.562;13.414;2024-01-10T06:14:17;98221.44;;;-3.51;59.49
35649;BME280;21768;48.562;13.414;2024-01-10T06:16:42;98221.44;;;-3.51;59.40
35649;BME280;21768;48.562;13.414;2024-01-10T06:19:09;98217.41;;;-3.50;59.86
35649;BME280;21768;48.562;13.414;2024-01-10T06:21:35;98228.25;;;-3.55;59.71
35649;BME280;21768;48.562;13.414;2024-01-10T06:24:00;98222.00;;;-3.59;59.99
35649;BME280;21768;48.562;13.414;2024-01-10T06:26:26;98225.25;;;-3.65;60.05
35649;BME280;21768;48.562;13.414;2024-01-10T06:28:51;98225.03;;;-3.67;59.77
35649;BME280;21768;48.562;13.414;2024-01-10T06:31:16;98222.56;;;-3.67;60.09
35649;BME280;21768;48.562;13.414;2024-01-10T06:33:42;98227.09;;;-3.70;60.35
35649;BME280;21768;48.562;13.414;2024-01-10T06:36:07;98224.63;;;-3.70;60.40
35649;BME280;21768;48.562;13.414;2024-01-10T06:38:33;98219.91;;;-3.68;60.30
35649;BME280;21768;48.562;13.414;2024-01-10T06:40:58;98224.84;;;-3.68;60.63
35649;BME280;21768;48.562;13.414;2024-01-10T06:43:23;98228.81;;;-3.63;60.61
35649;BME280;21768;48.562;13.414;2024-01-10T06:45:49;98228.81;;;-3.63;60.63
35649;BME280;21768;48.562;13.414;2024-01-10T06:48:14;98229.50;;;-3.64;60.96
35649;BME280;21768;48.562;13.414;2024-01-10T06:50:40;98227.91;;;-3.64;61.01
35649;BME280;21768;48.562;13.414;2024-01-10T06:53:05;98223.47;;;-3.66;61.04
35649;BME280;21768;48.562;13.414;2024-01-10T06:55:30;98226.63;;;-3.67;61.06
35649;BME280;21768;48.562;13.414;2024-01-10T06:57:56;98228.88;;;-3.69;61.09
35649;BME280;21768;48.562;13.414;2024-01-10T07:00:22;98231.53;;;-3.67;61.10
35649;BME280;21768;48.562;13.414;2024-01-10T07:02:47;98240.25;;;-3.64;61.00
35649;BME280;21768;48.562;13.414;2024-01-10T07:05:14;98243.59;;;-3.63;61.10
35649;BME280;21768;48.562;13.414;2024-01-10T07:07:39;98244.06;;;-3.66;61.19
35649;BME280;21768;48.562;13.414;2024-01-10T07:10:05;98243.19;;;-3.66;61.28
35649;BME280;21768;48.562;13.414;2024-01-10T07:12:33;98243.59;;;-3.63;61.16
35649;BME280;21768;48.562;13.414;2024-01-10T07:14:59;98248.94;;;-3.60;61.39
35649;BME280;21768;48.562;13.414;2024-01-10T07:17:25;98244.59;;;-3.56;61.60
35649;BME280;21768;48.562;13.414;2024-01-10T07:19:50;98244.03;;;-3.48;61.57
35649;BME280;21768;48.562;13.414;2024-01-10T07:22:16;98244.81;;;-3.42;61.32
35649;BME280;21768;48.562;13.414;2024-01-10T07:24:43;98237.34;;;-3.36;61.31
35649;BME280;21768;48.562;13.414;2024-01-10T07:27:08;98245.63;;;-3.35;61.24
35649;BME280;21768;48.562;13.414;2024-01-10T07:29:34;98251.03;;;-3.38;61.38
35649;BME280;21768;48.562;13.414;2024-01-10T07:32:00;98244.06;;;-3.35;61.37
35649;BME280;21768;48.562;13.414;2024-01-10T07:34:25;98246.03;;;-3.32;61.39
35649;BME280;21768;48.562;13.414;2024-01-10T07:36:50;98250.69;;;-3.28;61.51
35649;BME280;21768;48.562;13.414;2024-01-10T07:39:16;98252.75;;;-3.19;61.40
35649;BME280;21768;48.562;13.414;2024-01-10T07:41:44;98254.91;;;-3.15;61.34
35649;BME280;21768;48.562;13.414;2024-01-10T07:44:09;98255.94;;;-3.07;61.46
35649;BME280;21768;48.562;13.414;2024-01-10T07:46:35;98266.41;;;-3.02;61.43
35649;BME280;21768;48.562;13.414;2024-01-10T07:49:03;98262.22;;;-2.96;61.26
35649;BME280;21768;48.562;13.414;2024-01-10T07:51:29;98256.81;;;-2.94;61.30
35649;BME280;21768;48.562;13.414;2024-01-10T07:53:55;98263.72;;;-2.91;61.04
35649;BME280;21768;48.562;13.414;2024-01-10T07:56:20;98270.13;;;-2.86;61.23
35649;BME280;21768;48.562;13.414;2024-01-10T07:58:45;98266.00;;;-2.80;60.93
35649;BME280;21768;48.562;13.414;2024-01-10T08:01:11;98263.63;;;-2.73;61.30
35649;BME280;21768;48.562;13.414;2024-01-10T08:03:36;98265.50;;;-2.65;60.84
35649;BME280;21768;48.562;13.414;2024-01-10T08:06:02;98260.25;;;-2.61;60.74
35649;BME280;21768;48.562;13.414;2024-01-10T08:08:28;98264.22;;;-2.56;60.61
35649;BME280;21768;48.562;13.414;2024-01-10T08:10:53;98270.28;;;-2.47;60.52
35649;BME280;21768;48.562;13.414;2024-01-10T08:13:19;98270.69;;;-2.44;60.37
35649;BME280;21768;48.562;13.414;2024-01-10T08:15:44;98261.59;;;-2.37;60.47
35649;BME280;21768;48.562;13.414;2024-01-10T08:18:10;98276.91;;;-2.27;60.25
35649;BME280;21768;48.562;13.414;2024-01-10T08:20:35;98273.41;;;-2.22;60.16
35649;BME280;21768;48.562;13.414;2024-01-10T08:23:00;98275.97;;;-2.15;60.06
35649;BME280;21768;48.562;13.414;2024-01-10T08:25:26;98272.50;;;-2.10;59.92
35649;BME280;21768;48.562;13.414;2024-01-10T08:27:51;98272.28;;;-1.99;59.62
35649;BME280;21768;48.562;13.414;2024-01-10T08:30:22;98280.06;;;-1.96;59.51
35649;BME280;21768;48.562;13.414;2024-01-10T08:32:47;98281.72;;;-1.89;59.41
35649;BME280;21768;48.562;13.414;2024-01-10T08:35:13;98284.28;;;-1.82;58.98
35649;BME280;21768;48.562;13.414;2024-01-10T08:37:39;98290.88;;;-1.76;58.87
35649;BME280;21768;48.562;13.414;2024-01-10T08:40:09;98286.69;;;-1.69;58.70
35649;BME280;21768;48.562;13.414;2024-01-10T08:42:46;98293.50;;;-1.61;58.68
35649;BME280;21768;48.562;13.414;2024-01-10T08:45:11;98289.88;;;-1.51;58.53
35649;BME280;21768;48.562;13.414;2024-01-10T08:47:37;98283.38;;;-1.43;58.34
35649;BME280;21768;48.562;13.414;2024-01-10T08:50:03;98285.00;;;-1.24;58.09
35649;BME280;21768;48.562;13.414;2024-01-10T08:52:31;98283.13;;;-1.12;57.62
35649;BME280;21768;48.562;13.414;2024-01-10T08:54:56;98292.94;;;-0.99;57.74
35649;BME280;21768;48.562;13.414;2024-01-10T08:57:21;98284.84;;;-0.91;57.28
35649;BME280;21768;48.562;13.414;2024-01-10T08:59:47;98285.66;;;-0.71;57.06
35649;BME280;21768;48.562;13.414;2024-01-10T09:02:12;98286.78;;;-0.62;56.74
35649;BME280;21768;48.562;13.414;2024-01-10T09:04:37;98286.16;;;-0.54;56.64
35649;BME280;21768;48.562;13.414;2024-01-10T09:07:03;98292.84;;;-0.19;56.23
35649;BME280;21768;48.562;13.414;2024-01-10T09:09:28;98288.84;;;0.10;55.36
35649;BME280;21768;48.562;13.414;2024-01-10T09:11:54;98291.41;;;0.24;55.05
35649;BME280;21768;48.562;13.414;2024-01-10T09:14:19;98275.47;;;0.79;54.38
35649;BME280;21768;48.562;13.414;2024-01-10T09:16:45;98276.53;;;2.65;51.33
35649;BME280;21768;48.562;13.414;2024-01-10T09:19:10;98274.13;;;4.47;47.59
35649;BME280;21768;48.562;13.414;2024-01-10T09:21:35;98267.22;;;5.77;44.86
35649;BME280;21768;48.562;13.414;2024-01-10T09:24:01;98273.06;;;6.64;43.37
35649;BME280;21768;48.562;13.414;2024-01-10T09:26:28;98269.56;;;7.53;41.71
35649;BME280;21768;48.562;13.414;2024-01-10T09:28:54;98266.13;;;8.36;40.13
35649;BME280;21768;48.562;13.414;2024-01-10T09:31:19;98272.97;;;9.15;38.59
35649;BME280;21768;48.562;13.414;2024-01-10T09:33:45;98261.38;;;9.99;37.04
35649;BME280;21768;48.562;13.414;2024-01-10T09:36:10;98266.38;;;10.39;36.00
35649;BME280;21768;48.562;13.414;2024-01-10T09:38:36;98266.66;;;10.22;36.05
35649;BME280;21768;48.562;13.414;2024-01-10T09:41:04;98264.97;;;10.65;35.24
35649;BME280;21768;48.562;13.414;2024-01-10T09:43:31;98267.38;;;10.95;34.71
35649;BME280;21768;48.562;13.414;2024-01-10T09:45:58;98263.16;;;11.39;33.73
35649;BME280;21768;48.562;13.414;2024-01-10T09:48:25;98265.13;;;11.99;32.90
35649;BME280;21768;48.562;13.414;2024-01-10T09:50:51;98265.13;;;12.69;31.84
35649;BME280;21768;48.562;13.414;2024-01-10T09:53:26;98264.47;;;12.59;32.02
35649;BME280;21768;48.562;13.414;2024-01-10T09:55:53;98266.16;;;13.07;31.19
35649;BME280;21768;48.562;13.414;2024-01-10T09:58:23;98253.63;;;14.23;29.18
35649;BME280;21768;48.562;13.414;2024-01-10T10:00:50;98255.22;;;14.74;28.26
35649;BME280;21768;48.562;13.414;2024-01-10T10:03:17;98250.06;;;13.81;28.94
35649;BME280;21768;48.562;13.414;2024-01-10T10:05:43;98251.13;;;11.80;31.12
35649;BME280;21768;48.562;13.414;2024-01-10T10:08:11;98264.75;;;10.09;33.47
35649;BME280;21768;48.562;13.414;2024-01-10T10:10:36;98260.44;;;8.97;34.89
35649;BME280;21768;48.562;13.414;2024-01-10T10:13:08;98264.75;;;8.21;36.33
35649;BME280;21768;48.562;13.414;2024-01-10T10:15:36;98259.19;;;7.77;36.88
35649;BME280;21768;48.562;13.414;2024-01-10T10:18:02;98260.25;;;7.52;36.85
35649;BME280;21768;48.562;13.414;2024-01-10T10:20:28;98259.31;;;7.41;37.05
35649;BME280;21768;48.562;13.414;2024-01-10T10:23:01;98255.28;;;7.90;36.80
35649;BME280;21768;48.562;13.414;2024-01-10T10:25:31;98248.16;;;9.10;34.76
35649;BME280;21768;48.562;13.414;2024-01-10T10:27:57;98247.44;;;8.92;34.62
35649;BME280;21768;48.562;13.414;2024-01-10T10:30:23;98258.50;;;8.26;35.61
35649;BME280;21768;48.562;13.414;2024-01-10T10:32:49;98254.19;;;8.15;36.21
35649;BME280;21768;48.562;13.414;2024-01-10T10:35:14;98253.19;;;9.10;34.72
35649;BME280;21768;48.562;13.414;2024-01-10T10:37:39;98242.97;;;10.00;33.47
35649;BME280;21768;48.562;13.414;2024-01-10T10:40:05;98238.94;;;10.54;32.66
35649;BME280;21768;48.562;13.414;2024-01-10T10:42:34;98240.53;;;10.64;32.27
35649;BME280;21768;48.562;13.414;2024-01-10T10:45:03;98243.75;;;10.41;32.98
35649;BME280;21768;48.562;13.414;2024-01-10T10:47:31;98247.38;;;10.02;33.09
35649;BME280;21768;48.562;13.414;2024-01-10T10:50:02;98252.81;;;9.46;34.00
35649;BME280;21768;48.562;13.414;2024-01-10T10:52:28;98251.19;;;9.67;34.20
35649;BME280;21768;48.562;13.414;2024-01-10T10:54:55;98244.97;;;11.88;31.35
35649;BME280;21768;48.562;13.414;2024-01-10T10:57:24;98240.56;;;13.66;28.83
35649;BME280;21768;48.562;13.414;2024-01-10T10:59:52;98227.81;;;15.11;27.28
35649;BME280;21768;48.562;13.414;2024-01-10T11:02:21;98226.09;;;16.55;25.48
35649;BME280;21768;48.562;13.414;2024-01-10T11:04:50;98218.94;;;17.44;24.31
35649;BME280;21768;48.562;13.414;2024-01-10T11:07:16;98209.94;;;18.19;23.45
35649;BME280;21768;48.562;13.414;2024-01-10T11:09:42;98208.34;;;18.21;23.16
35649;BME280;21768;48.562;13.414;2024-01-10T11:12:48;98205.19;;;18.09;23.86
35649;BME280;21768;48.562;13.414;2024-01-10T11:17:57;98199.72;;;18.19;22.52
35649;BME280;21768;48.562;13.414;2024-01-10T11:20:39;98198.09;;;18.56;22.75
35649;BME280;21768;48.562;13.414;2024-01-10T11:23:46;98198.63;;;19.04;22.93
35649;BME280;21768;48.562;13.414;2024-01-10T11:26:15;98200.06;;;17.57;22.62
35649;BME280;21768;48.562;13.414;2024-01-10T11:28:41;98198.13;;;16.26;24.45
35649;BME280;21768;48.562;13.414;2024-01-10T11:31:07;98195.00;;;16.46;24.42
35649;BME280;21768;48.562;13.414;2024-01-10T11:33:39;98188.09;;;16.60;23.70
35649;BME280;21768;48.562;13.414;2024-01-10T11:38:42;98186.34;;;16.74;23.93
35649;BME280;21768;48.562;13.414;2024-01-10T11:41:10;98189.94;;;16.77;23.38
35649;BME280;21768;48.562;13.414;2024-01-10T11:43:37;98187.94;;;16.72;23.64
35649;BME280;21768;48.562;13.414;2024-01-10T11:46:02;98178.53;;;17.35;23.10
35649;BME280;21768;48.562;13.414;2024-01-10T11:48:31;98178.56;;;18.04;21.83
35649;BME280;21768;48.562;13.414;2024-01-10T11:51:00;98185.09;;;17.30;22.43
35649;BME280;21768;48.562;13.414;2024-01-10T11:53:44;98177.34;;;16.49;23.85
35649;BME280;21768;48.562;13.414;2024-01-10T11:59:30;98169.22;;;14.80;24.87
35649;BME280;21768;48.562;13.414;2024-01-10T12:01:57;98178.84;;;14.31;25.43
35649;BME280;21768;48.562;13.414;2024-01-10T12:04:22;98171.78;;;14.40;25.72
35649;BME280;21768;48.562;13.414;2024-01-10T12:06:48;98174.75;;;14.59;25.35
35649;BME280;21768;48.562;13.414;2024-01-10T12:09:13;98165.94;;;15.10;25.03
35649;BME280;21768;48.562;13.414;2024-01-10T12:11:40;98174.28;;;15.50;24.65
35649;BME280;21768;48.562;13.414;2024-01-10T12:14:08;98168.59;;;15.84;24.12
35649;BME280;21768;48.562;13.414;2024-01-10T12:16:33;98164.78;;;16.21;23.92
35649;BME280;21768;48.562;13.414;2024-01-10T12:18:59;98171.88;;;16.58;23.26
35649;BME280;21768;48.562;13.414;2024-01-10T12:21:25;98164.06;;;16.24;23.71
35649;BME280;21768;48.562;13.414;2024-01-10T12:23:50;98161.13;;;16.02;23.64
35649;BME280;21768;48.562;13.414;2024-01-10T12:26:16;98161.81;;;15.99;23.65
35649;BME280;21768;48.562;13.414;2024-01-10T12:28:56;98158.31;;;15.53;24.14
35649;BME280;21768;48.562;13.414;2024-01-10T12:31:22;98154.06;;;15.09;24.76
35649;BME280;21768;48.562;13.414;2024-01-10T12:33:48;98155.31;;;15.30;24.94
35649;BME280;21768;48.562;13.414;2024-01-10T12:36:14;98156.19;;;15.46;24.61
35649;BME280;21768;48.562;13.414;2024-01-10T12:38:39;98153.56;;;15.88;24.14
35649;BME280;21768;48.562;13.414;2024-01-10T12:41:05;98147.72;;;16.51;24.00
35649;BME280;21768;48.562;13.414;2024-01-10T12:43:34;98153.88;;;17.02;23.08
35649;BME280;21768;48.562;13.414;2024-01-10T12:46:08;98154.47;;;17.30;22.69
35649;BME280;21768;48.562;13.414;2024-01-10T12:48:36;98159.06;;;17.54;22.34
35649;BME280;21768;48.562;13.414;2024-01-10T12:51:04;98153.94;;;15.94;23.44
35649;BME280;21768;48.562;13.414;2024-01-10T12:53:40;98158.88;;;13.45;26.13